createdAt,value
2022-10-02T00:02:06.914Z,100.00
2022-10-02T00:04:47.577Z,100.00
2022-10-02T00:07:18.327Z,100.00
2022-10-02T00:09:50.899Z,100.00
2022-10-02T00:12:22.112Z,100.00
2022-10-02T00:14:54.544Z,100.00
2022-10-02T00:17:29.842Z,100.00
2022-10-02T00:19:57.047Z,100.00
2022-10-02T00:22:47.119Z,100.00
2022-10-02T00:25:27.111Z,100.00
2022-10-02T00:28:29.151Z,100.00
2022-10-02T00:30:58.684Z,100.00
2022-10-02T00:33:31.498Z,100.00
2022-10-02T00:36:11.623Z,100.00
2022-10-02T00:38:47.767Z,100.00
2022-10-02T00:41:48.376Z,100.00
2022-10-02T00:44:44.240Z,100.00
2022-10-02T00:47:10.998Z,100.00
2022-10-02T00:49:58.746Z,100.00
2022-10-02T00:52:44.725Z,100.00
2022-10-02T00:55:46.569Z,100.00
2022-10-02T00:58:37.305Z,100.00
2022-10-02T01:01:12.056Z,100.00
2022-10-02T01:03:44.581Z,100.00
2022-10-02T01:06:12.080Z,100.00
2022-10-02T01:08:38.939Z,100.00
2022-10-02T01:11:06.944Z,100.00
2022-10-02T01:13:34.251Z,100.00
2022-10-02T01:16:01.617Z,100.00
2022-10-02T01:18:30.364Z,100.00
2022-10-02T01:21:04.168Z,100.00
2022-10-02T01:23:41.356Z,100.00
2022-10-02T01:26:08.229Z,100.00
2022-10-02T01:28:35.111Z,100.00
2022-10-02T01:31:16.419Z,100.00
2022-10-02T01:33:44.961Z,100.00
2022-10-02T01:36:13.856Z,100.00
2022-10-02T01:38:42.615Z,100.00
2022-10-02T01:41:12.690Z,100.00
2022-10-02T01:43:45.907Z,100.00
2022-10-02T01:46:27.680Z,100.00
2022-10-02T01:49:01.090Z,100.00
2022-10-02T01:51:52.465Z,100.00
2022-10-02T01:54:46.909Z,100.00
2022-10-02T01:57:29.461Z,100.00
2022-10-02T02:00:08.575Z,100.00
2022-10-02T02:02:59.746Z,100.00
2022-10-02T02:05:32.206Z,100.00
2022-10-02T02:08:09.515Z,100.00
2022-10-02T02:10:52.929Z,100.00
2022-10-02T02:13:51.722Z,100.00
2022-10-02T02:16:42.654Z,100.00
2022-10-02T02:19:26.125Z,100.00
2022-10-02T02:22:14.883Z,100.00
2022-10-02T02:24:52.511Z,100.00
2022-10-02T02:27:24.720Z,100.00
2022-10-02T02:29:55.570Z,100.00
2022-10-02T02:32:28.281Z,100.00
2022-10-02T02:35:02.051Z,100.00
2022-10-02T02:37:34.125Z,100.00
2022-10-02T02:40:03.489Z,100.00
2022-10-02T02:42:35.932Z,100.00
2022-10-02T02:45:14.717Z,100.00
2022-10-02T02:48:06.377Z,100.00
2022-10-02T02:50:41.468Z,100.00
2022-10-02T02:53:16.687Z,100.00
2022-10-02T02:55:58.409Z,100.00
2022-10-02T02:58:32.016Z,100.00
2022-10-02T03:00:59.127Z,100.00
2022-10-02T03:03:26.948Z,100.00
2022-10-02T03:06:15.500Z,100.00
2022-10-02T03:08:43.759Z,100.00
2022-10-02T03:11:22.106Z,100.00
2022-10-02T03:14:19.551Z,100.00
2022-10-02T03:17:04.796Z,100.00
2022-10-02T03:19:48.010Z,100.00
2022-10-02T03:22:56.133Z,100.00
2022-10-02T03:25:37.336Z,100.00
2022-10-02T03:28:12.393Z,100.00
2022-10-02T03:30:41.732Z,100.00
2022-10-02T03:33:10.676Z,100.00
2022-10-02T03:35:38.357Z,100.00
2022-10-02T03:38:07.991Z,100.00
2022-10-02T03:40:34.832Z,100.00
2022-10-02T03:43:01.895Z,100.00
2022-10-02T03:45:49.973Z,100.00
2022-10-02T03:48:17.104Z,100.00
2022-10-02T03:50:44.548Z,100.00
2022-10-02T03:53:17.545Z,100.00
2022-10-02T03:55:49.890Z,100.00
2022-10-02T03:58:18.699Z,100.00
2022-10-02T04:01:04.638Z,100.00
2022-10-02T04:03:37.684Z,100.00
2022-10-02T04:06:36.070Z,100.00
2022-10-02T04:09:12.092Z,100.00
2022-10-02T04:11:48.497Z,100.00
2022-10-02T04:14:46.120Z,100.00
2022-10-02T04:17:20.725Z,100.00
2022-10-02T04:19:59.642Z,100.00
2022-10-02T04:22:52.986Z,100.00
2022-10-02T04:25:27.956Z,100.00
2022-10-02T04:28:02.301Z,100.00
2022-10-02T04:30:30.344Z,100.00
2022-10-02T04:33:06.723Z,100.00
2022-10-02T04:35:44.929Z,100.00
2022-10-02T04:38:17.542Z,100.00
2022-10-02T04:41:04.573Z,100.00
2022-10-02T04:43:52.581Z,100.00
2022-10-02T04:46:37.872Z,100.00
2022-10-02T04:49:07.617Z,100.00
2022-10-02T04:52:29.814Z,99.44
2022-10-02T04:55:20.720Z,98.32
2022-10-02T04:58:24.385Z,98.10
2022-10-02T05:01:40.258Z,96.78
2022-10-02T05:04:34.668Z,95.24
2022-10-02T05:07:33.635Z,95.17
2022-10-02T05:10:37.296Z,93.16
2022-10-02T05:13:28.117Z,91.91
2022-10-02T05:16:12.931Z,92.02
2022-10-02T05:18:58.146Z,92.49
2022-10-02T05:21:34.250Z,91.45
2022-10-02T05:24:30.333Z,91.09
2022-10-02T05:27:15.825Z,89.51
2022-10-02T05:29:42.550Z,87.08
2022-10-02T05:32:22.564Z,86.47
2022-10-02T05:35:26.429Z,84.40
2022-10-02T05:37:53.167Z,85.33
2022-10-02T05:40:34.140Z,85.23
2022-10-02T05:43:22.644Z,83.85
2022-10-02T05:45:57.008Z,84.22
2022-10-02T05:48:38.629Z,83.76
2022-10-02T05:51:24.079Z,83.01
2022-10-02T05:53:58.185Z,83.16
2022-10-02T05:56:32.607Z,83.88
2022-10-02T05:59:08.491Z,83.64
2022-10-02T06:01:41.430Z,83.10
2022-10-02T06:04:33.942Z,83.30
2022-10-02T06:07:07.452Z,83.08
2022-10-02T06:09:40.631Z,83.88
2022-10-02T06:12:21.153Z,83.21
2022-10-02T06:15:17.188Z,83.52
2022-10-02T06:17:53.732Z,82.14
2022-10-02T06:21:01.739Z,83.26
2022-10-02T06:23:36.119Z,83.19
2022-10-02T06:26:07.363Z,83.58
2022-10-02T06:28:48.945Z,83.09
2022-10-02T06:31:41.729Z,82.58
2022-10-02T06:34:12.473Z,82.40
2022-10-02T06:36:48.684Z,82.17
2022-10-02T06:39:33.096Z,81.07
2022-10-02T06:42:08.674Z,80.69
2022-10-02T06:44:47.700Z,79.59
2022-10-02T06:47:17.587Z,78.25
2022-10-02T06:50:03.550Z,77.98
2022-10-02T06:52:43.879Z,77.40
2022-10-02T06:55:40.961Z,77.03
2022-10-02T06:58:35.162Z,77.73
2022-10-02T07:01:10.968Z,77.89
2022-10-02T07:03:47.285Z,77.70
2022-10-02T07:06:26.531Z,78.41
2022-10-02T07:09:14.046Z,76.61
2022-10-02T07:11:55.364Z,74.38
2022-10-02T07:14:28.149Z,72.16
2022-10-02T07:17:03.136Z,72.44
2022-10-02T07:19:45.065Z,72.29
2022-10-02T07:22:39.635Z,71.38
2022-10-02T07:25:07.292Z,70.15
2022-10-02T07:27:55.325Z,69.50
2022-10-02T07:30:22.323Z,68.99
2022-10-02T07:32:55.479Z,68.15
2022-10-02T07:35:59.428Z,68.11
2022-10-02T07:39:07.523Z,66.99
2022-10-02T07:41:59.561Z,65.10
2022-10-02T07:44:35.337Z,65.79
2022-10-02T07:47:26.827Z,63.77
2022-10-02T07:50:18.104Z,62.73
2022-10-02T07:52:50.669Z,63.85
2022-10-02T07:55:22.516Z,60.99
2022-10-02T07:58:22.000Z,60.51
2022-10-02T08:00:53.938Z,59.73
2022-10-02T08:03:28.252Z,58.47
2022-10-02T08:05:56.714Z,59.18
2022-10-02T08:08:30.074Z,60.82
2022-10-02T08:11:08.456Z,61.09
2022-10-02T08:13:46.115Z,60.71
2022-10-02T08:16:16.615Z,61.11
2022-10-02T08:18:48.889Z,59.48
2022-10-02T08:21:20.382Z,59.90
2022-10-02T08:23:59.808Z,59.07
2022-10-02T08:26:52.563Z,59.87
2022-10-02T08:29:41.696Z,59.18
2022-10-02T08:32:13.818Z,59.33
2022-10-02T08:34:42.138Z,56.52
2022-10-02T08:37:29.557Z,56.74
2022-10-02T08:40:17.971Z,55.75
2022-10-02T08:42:50.587Z,53.98
2022-10-02T08:45:35.390Z,55.25
2022-10-02T08:48:23.453Z,54.02
2022-10-02T08:51:11.542Z,52.78
2022-10-02T08:53:44.497Z,52.13
2022-10-02T08:56:38.939Z,52.67
2022-10-02T08:59:24.045Z,51.98
2022-10-02T09:02:28.276Z,52.13
2022-10-02T09:05:01.167Z,51.62
2022-10-02T09:08:16.056Z,50.72
2022-10-02T09:10:51.982Z,50.85
2022-10-02T09:13:33.670Z,50.40
2022-10-02T09:16:17.863Z,50.88
2022-10-02T09:19:03.088Z,50.13
2022-10-02T09:21:44.997Z,48.99
2022-10-02T09:24:43.627Z,48.48
2022-10-02T09:27:31.789Z,48.02
2022-10-02T09:30:21.644Z,46.82
2022-10-02T09:33:17.118Z,46.03
2022-10-02T09:35:49.934Z,46.03
2022-10-02T09:38:58.201Z,46.85
2022-10-02T09:42:09.224Z,46.56
2022-10-02T09:45:18.228Z,46.63
2022-10-02T09:48:32.081Z,46.41
2022-10-02T09:51:27.598Z,46.31
2022-10-02T09:54:21.548Z,45.77
2022-10-02T09:57:13.208Z,46.52
2022-10-02T09:59:48.706Z,46.03
2022-10-02T10:02:15.490Z,46.40
2022-10-02T10:05:09.004Z,44.93
2022-10-02T10:07:41.968Z,45.17
2022-10-02T10:10:53.509Z,44.71
2022-10-02T10:13:41.892Z,45.38
2022-10-02T10:16:34.193Z,46.55
2022-10-02T10:19:15.966Z,46.44
2022-10-02T10:21:51.467Z,45.42
2022-10-02T10:24:45.502Z,45.90
2022-10-02T10:27:33.222Z,46.24
2022-10-02T10:30:08.962Z,45.60
2022-10-02T10:33:13.166Z,43.91
2022-10-02T10:36:07.685Z,44.99
2022-10-02T10:38:49.706Z,44.31
2022-10-02T10:41:38.149Z,44.05
2022-10-02T10:44:52.564Z,44.32
2022-10-02T10:48:12.074Z,44.17
2022-10-02T10:51:16.892Z,43.38
2022-10-02T10:53:46.639Z,41.34
2022-10-02T10:56:34.904Z,42.40
2022-10-02T10:59:42.536Z,41.37
2022-10-02T11:02:27.578Z,41.58
2022-10-02T11:05:16.826Z,41.86
2022-10-02T11:07:44.576Z,42.51
2022-10-02T11:10:38.717Z,42.78
2022-10-02T11:13:23.904Z,42.23
2022-10-02T11:16:25.189Z,42.63
2022-10-02T11:19:17.935Z,42.60
2022-10-02T11:21:58.361Z,41.53
2022-10-02T11:24:37.131Z,41.87
2022-10-02T11:27:12.131Z,40.97
2022-10-02T11:30:10.191Z,40.93
2022-10-02T11:32:39.601Z,41.18
2022-10-02T11:35:12.366Z,40.51
2022-10-02T11:38:04.384Z,41.21
2022-10-02T11:40:41.861Z,41.74
2022-10-02T11:43:39.436Z,40.64
2022-10-02T11:46:36.604Z,41.23
2022-10-02T11:49:42.452Z,41.56
2022-10-02T11:52:48.443Z,41.41
2022-10-02T11:55:24.019Z,40.52
2022-10-02T11:58:05.249Z,41.33
2022-10-02T12:00:56.624Z,41.63
2022-10-02T12:03:45.104Z,40.98
2022-10-02T12:06:26.182Z,41.09
2022-10-02T12:09:09.660Z,40.71
2022-10-02T12:11:50.218Z,40.58
2022-10-02T12:14:43.913Z,41.55
2022-10-02T12:17:25.917Z,41.42
2022-10-02T12:20:58.884Z,40.35
2022-10-02T12:23:43.781Z,41.27
2022-10-02T12:26:54.239Z,41.35
2022-10-02T12:29:29.855Z,40.94
2022-10-02T12:32:19.152Z,40.83
2022-10-02T12:34:57.816Z,40.94
2022-10-02T12:37:27.588Z,41.25
2022-10-02T12:40:13.096Z,41.40
2022-10-02T12:42:54.406Z,41.10
2022-10-02T12:45:44.448Z,40.68
2022-10-02T12:48:26.355Z,39.81
2022-10-02T12:50:53.236Z,40.22
2022-10-02T12:53:49.940Z,39.82
2022-10-02T12:56:16.779Z,39.49
2022-10-02T12:59:14.700Z,40.83
2022-10-02T13:02:05.807Z,41.17
2022-10-02T13:05:05.473Z,41.72
2022-10-02T13:08:01.580Z,41.70
2022-10-02T13:10:38.124Z,40.67
2022-10-02T13:13:20.175Z,41.15
2022-10-02T13:16:28.100Z,40.18
2022-10-02T13:19:12.603Z,39.84
2022-10-02T13:22:11.085Z,39.79
2022-10-02T13:24:50.169Z,39.95
2022-10-02T13:27:31.903Z,40.06
2022-10-02T13:30:05.889Z,39.58
2022-10-02T13:32:54.507Z,40.19
2022-10-02T13:35:45.904Z,39.71
2022-10-02T13:38:30.846Z,40.43
2022-10-02T13:41:25.276Z,40.16
2022-10-02T13:44:07.788Z,39.90
2022-10-02T13:46:37.574Z,39.55
2022-10-02T13:49:22.561Z,39.73
2022-10-02T13:52:36.609Z,39.42
2022-10-02T13:55:21.885Z,38.75
2022-10-02T13:58:06.483Z,39.00
2022-10-02T14:00:56.456Z,38.75
2022-10-02T14:04:05.023Z,38.48
2022-10-02T14:06:38.873Z,38.46
2022-10-02T14:09:14.480Z,38.76
2022-10-02T14:11:44.108Z,38.77
2022-10-02T14:14:29.801Z,38.75
2022-10-02T14:17:35.178Z,38.90
2022-10-02T14:20:58.850Z,38.42
2022-10-02T14:23:50.417Z,38.54
2022-10-02T14:26:25.782Z,38.00
2022-10-02T14:28:55.181Z,38.25
2022-10-02T14:31:46.790Z,38.12
2022-10-02T14:34:36.938Z,37.87
2022-10-02T14:37:36.220Z,38.48
2022-10-02T14:40:13.075Z,38.02
2022-10-02T14:43:00.605Z,40.64
2022-10-02T14:45:52.013Z,37.36
2022-10-02T14:48:42.509Z,38.09
2022-10-02T14:51:18.134Z,36.98
2022-10-02T14:54:03.191Z,37.33
2022-10-02T14:56:32.885Z,37.93
2022-10-02T14:59:11.464Z,37.51
2022-10-02T15:01:45.497Z,37.35
2022-10-02T15:04:30.355Z,38.32
2022-10-02T15:07:03.996Z,39.39
2022-10-02T15:09:54.448Z,40.36
2022-10-02T15:12:36.524Z,40.24
2022-10-02T15:15:11.985Z,40.21
2022-10-02T15:18:17.391Z,41.05
2022-10-02T15:21:15.483Z,41.89
2022-10-02T15:23:50.745Z,42.08
2022-10-02T15:26:26.497Z,42.75
2022-10-02T15:29:07.356Z,43.10
2022-10-02T15:31:49.172Z,44.16
2022-10-02T15:34:24.755Z,44.18
2022-10-02T15:37:23.286Z,45.42
2022-10-02T15:39:53.162Z,45.92
2022-10-02T15:42:40.145Z,46.40
2022-10-02T15:45:27.866Z,47.58
2022-10-02T15:48:10.247Z,47.71
2022-10-02T15:50:58.124Z,48.36
2022-10-02T15:53:43.199Z,48.08
2022-10-02T15:56:28.113Z,49.02
2022-10-02T15:59:16.636Z,49.17
2022-10-02T16:02:01.425Z,49.26
2022-10-02T16:04:49.759Z,49.41
2022-10-02T16:07:45.300Z,49.27
2022-10-02T16:10:26.825Z,48.78
2022-10-02T16:13:12.638Z,49.44
2022-10-02T16:15:47.655Z,49.34
2022-10-02T16:18:20.386Z,49.30
2022-10-02T16:21:22.764Z,50.30
2022-10-02T16:24:12.599Z,49.36
2022-10-02T16:27:07.603Z,49.82
2022-10-02T16:29:59.620Z,50.17
2022-10-02T16:32:37.230Z,50.42
2022-10-02T16:35:20.144Z,50.72
2022-10-02T16:37:55.200Z,50.44
2022-10-02T16:40:27.068Z,50.74
2022-10-02T16:43:12.964Z,50.96
2022-10-02T16:45:49.010Z,51.80
2022-10-02T16:48:22.005Z,52.33
2022-10-02T16:51:10.526Z,52.54
2022-10-02T16:54:14.357Z,53.34
2022-10-02T16:56:41.180Z,53.07
2022-10-02T16:59:19.035Z,53.90
2022-10-02T17:02:16.015Z,54.15
2022-10-02T17:04:50.274Z,54.58
2022-10-02T17:07:41.720Z,55.14
2022-10-02T17:10:22.124Z,54.73
2022-10-02T17:13:07.453Z,54.93
2022-10-02T17:15:51.707Z,54.65
2022-10-02T17:18:24.695Z,54.77
2022-10-02T17:21:01.314Z,55.11
2022-10-02T17:23:34.034Z,54.88
2022-10-02T17:26:31.906Z,54.28
2022-10-02T17:29:12.584Z,54.44
2022-10-02T17:31:53.356Z,55.04
2022-10-02T17:34:27.973Z,55.03
2022-10-02T17:37:07.179Z,54.79
2022-10-02T17:39:43.122Z,55.08
2022-10-02T17:42:28.678Z,54.94
2022-10-02T17:45:04.868Z,55.12
2022-10-02T17:47:54.559Z,54.93
2022-10-02T17:51:00.082Z,55.24
2022-10-02T17:54:04.569Z,55.38
2022-10-02T17:56:50.871Z,55.21
2022-10-02T17:59:51.473Z,55.18
2022-10-02T18:02:34.084Z,55.07
2022-10-02T18:05:19.213Z,55.12
2022-10-02T18:08:05.117Z,54.79
2022-10-02T18:11:30.590Z,54.02
2022-10-02T18:14:13.685Z,53.59
2022-10-02T18:17:21.146Z,53.03
2022-10-02T18:20:10.581Z,53.15
2022-10-02T18:22:58.652Z,53.13
2022-10-02T18:25:31.665Z,53.18
2022-10-02T18:28:11.443Z,53.07
2022-10-02T18:31:03.045Z,53.24
2022-10-02T18:34:06.818Z,53.66
2022-10-02T18:36:50.787Z,54.06
2022-10-02T18:39:37.253Z,54.46
2022-10-02T18:42:30.041Z,55.08
2022-10-02T18:45:40.754Z,55.17
2022-10-02T18:48:41.948Z,55.12
2022-10-02T18:51:34.580Z,55.73
2022-10-02T18:54:23.071Z,56.05
2022-10-02T18:57:07.902Z,56.61
2022-10-02T19:00:02.627Z,56.70
2022-10-02T19:03:20.054Z,56.87
2022-10-02T19:06:06.081Z,57.24
2022-10-02T19:09:05.691Z,57.78
2022-10-02T19:11:36.313Z,58.15
2022-10-02T19:14:15.033Z,58.19
2022-10-02T19:16:59.330Z,58.31
2022-10-02T19:19:28.483Z,58.64
2022-10-02T19:22:13.002Z,59.48
2022-10-02T19:24:42.475Z,59.72
2022-10-02T19:27:19.371Z,59.93
2022-10-02T19:29:54.546Z,60.41
2022-10-02T19:32:30.785Z,60.68
2022-10-02T19:35:08.474Z,61.05
2022-10-02T19:37:41.730Z,61.44
2022-10-02T19:40:15.969Z,61.59
2022-10-02T19:42:55.607Z,61.87
2022-10-02T19:45:27.004Z,61.91
2022-10-02T19:47:59.874Z,62.13
2022-10-02T19:50:37.959Z,62.39
2022-10-02T19:53:16.708Z,62.98
2022-10-02T19:55:44.578Z,63.19
2022-10-02T19:58:20.630Z,63.16
2022-10-02T20:00:50.914Z,63.58
2022-10-02T20:03:21.215Z,63.90
2022-10-02T20:05:53.146Z,64.21
2022-10-02T20:08:25.893Z,64.77
2022-10-02T20:11:01.883Z,65.35
2022-10-02T20:13:44.677Z,65.53
2022-10-02T20:16:41.933Z,66.70
2022-10-02T20:19:18.285Z,65.89
2022-10-02T20:21:49.724Z,66.91
2022-10-02T20:24:58.535Z,67.49
2022-10-02T20:27:34.979Z,68.34
2022-10-02T20:30:11.268Z,69.41
2022-10-02T20:32:45.412Z,70.51
2022-10-02T20:35:45.363Z,70.20
2022-10-02T20:38:47.034Z,70.36
2022-10-02T20:41:25.618Z,70.43
2022-10-02T20:44:02.330Z,71.06
2022-10-02T20:46:47.393Z,72.81
2022-10-02T20:49:23.066Z,73.03
2022-10-02T20:52:27.135Z,73.57
2022-10-02T20:55:07.342Z,71.80
2022-10-02T20:58:09.550Z,71.83
2022-10-02T21:01:04.332Z,71.61
2022-10-02T21:03:40.939Z,75.41
2022-10-02T21:06:22.672Z,74.28
2022-10-02T21:09:09.160Z,74.31
2022-10-02T21:11:54.499Z,74.71
2022-10-02T21:14:30.008Z,74.87
2022-10-02T21:17:30.734Z,75.91
2022-10-02T21:20:06.560Z,76.08
2022-10-02T21:22:59.345Z,76.63
2022-10-02T21:26:04.064Z,75.01
2022-10-02T21:28:49.041Z,74.97
2022-10-02T21:31:56.571Z,75.49
2022-10-02T21:34:35.302Z,75.59
2022-10-02T21:37:13.154Z,75.37
2022-10-02T21:39:55.261Z,76.22
2022-10-02T21:42:42.028Z,76.50
2022-10-02T21:46:03.214Z,76.96
2022-10-02T21:48:56.407Z,77.28
2022-10-02T21:51:41.642Z,79.15
2022-10-02T21:54:35.876Z,80.52
2022-10-02T21:57:05.271Z,81.12
2022-10-02T22:00:07.256Z,82.76
2022-10-02T22:03:19.118Z,82.77
2022-10-02T22:06:15.020Z,82.24
2022-10-02T22:08:44.583Z,85.08
2022-10-02T22:11:24.937Z,84.75
2022-10-02T22:13:57.990Z,86.43
2022-10-02T22:16:36.963Z,85.42
2022-10-02T22:19:25.377Z,86.28
2022-10-02T22:22:13.205Z,86.65
2022-10-02T22:24:48.862Z,86.93
2022-10-02T22:27:37.289Z,85.95
2022-10-02T22:30:05.275Z,86.01
2022-10-02T22:33:13.318Z,86.78
2022-10-02T22:36:04.842Z,87.76
2022-10-02T22:38:31.579Z,88.08
2022-10-02T22:41:02.585Z,88.88
2022-10-02T22:43:32.164Z,89.37
2022-10-02T22:46:16.376Z,89.45
2022-10-02T22:48:49.264Z,90.65
2022-10-02T22:51:25.274Z,89.06
2022-10-02T22:54:14.295Z,89.41
2022-10-02T22:56:51.449Z,90.19
2022-10-02T22:59:38.067Z,91.17
2022-10-02T23:02:35.119Z,89.70
2022-10-02T23:05:17.403Z,90.80
2022-10-02T23:07:56.063Z,92.51
2022-10-02T23:10:37.958Z,90.68
2022-10-02T23:13:11.739Z,90.19
2022-10-02T23:16:04.163Z,90.57
2022-10-02T23:18:40.034Z,90.37
2022-10-02T23:21:25.231Z,91.38
2022-10-02T23:24:02.561Z,92.74
2022-10-02T23:26:41.540Z,91.33
2022-10-02T23:29:26.653Z,91.78
2022-10-02T23:32:24.355Z,90.35
2022-10-02T23:34:54.265Z,91.06
2022-10-02T23:37:53.181Z,91.48
2022-10-02T23:40:47.676Z,93.22
2022-10-02T23:43:38.708Z,93.12
2022-10-02T23:46:18.100Z,94.92
2022-10-02T23:48:45.683Z,94.07
2022-10-02T23:51:32.530Z,94.77
2022-10-02T23:54:21.133Z,94.26
2022-10-02T23:57:14.954Z,96.35
2022-10-02T23:59:58.602Z,95.89
